Nichiryu Maru — JG5632 — position and weather

sailwx.info

Track history (hours):
 
Tides and Currents Weather Stations Pressure Air Temp Water Temp Dewpoint Dewpoint Depression Visibility Wind Speed Wind Dir Waves Ship Positions

Nichiryu Maru

Last reported at 2017-May-25 11:36 UTC. Time now 2017-May-25 16:18 UTC.
Position N 34°56' E 139°29'.

Length 158 m; draft 6.5 m.

Type: Cargo ship. MMSI: 43100939.

Date/timePositionNaut miles runAvg speedWind from/ knotsBaromVisibWave heightAir tempDewpointWater temp
2017-May-25 11:36N 34°56' E 139°29'219.7
2017-May-25 11:30N 34°58' E 139°31'1019.3
2017-May-25 11:00N 35°04' E 139°40'917.0
2017-May-25 10:30N 35°11' E 139°45'612.5
2017-May-25 10:00N 35°17' E 139°44'5 9.1
2017-May-25 09:30N 35°19' E 139°39'0 0.0
2017-May-25 08:59N 35°19' E 139°39'0 0.0
2017-May-25 08:29N 35°19' E 139°39'0 0.0
2017-May-25 07:59N 35°19' E 139°39'0 0.0
2017-May-25 07:29N 35°19' E 139°39'0 0.0
2017-May-25 06:59N 35°19' E 139°39'0 0.0
2017-May-25 06:29N 35°19' E 139°39'0 0.0
2017-May-25 05:59N 35°19' E 139°39'0 0.0
2017-May-25 05:29N 35°19' E 139°39'0 0.0
2017-May-25 04:59N 35°19' E 139°39'0 0.0
2017-May-25 04:29N 35°19' E 139°39'0 0.0
2017-May-25 03:56N 35°19' E 139°39'0 1.0
2017-May-25 03:30N 35°19' E 139°40'510.3
2017-May-25 03:00N 35°17' E 139°45'611.9
2017-May-25 02:30N 35°11' E 139°47'815.8
2017-May-25 02:00N 35°03' E 139°44'917.4
2017-May-25 01:30N 34°57' E 139°37'917.0
2017-May-25 00:57N 34°50' E 139°30'1117.0
2017-May-25 00:18N 34°47' E 139°17'  
2017-May-22 11:35N 34°55' E 139°29'217.3
2017-May-22 11:30N 34°57' E 139°30'917.3
2017-May-22 11:00N 35°02' E 139°38'816.8
2017-May-22 10:30N 35°09' E 139°44'713.3
2017-May-22 10:00N 35°15' E 139°46'612.0
2017-May-22 09:30N 35°19' E 139°40'1 2.0
2017-May-22 08:57N 35°19' E 139°39'0 0.0
2017-May-22 08:24N 35°19' E 139°39'0 0.0
2017-May-22 07:57N 35°19' E 139°39'0 0.0
2017-May-22 07:30N 35°19' E 139°39'0 0.0
2017-May-22 06:57N 35°19' E 139°39'0 0.0
2017-May-22 06:30N 35°19' E 139°39'0 0.0
2017-May-22 06:00N 35°19' E 139°39'0 0.0
2017-May-22 05:30N 35°19' E 139°39'0 0.0
2017-May-22 05:00N 35°19' E 139°39'0 0.0
2017-May-22 04:30N 35°19' E 139°39'0 0.0
2017-May-22 04:00N 35°19' E 139°39'0 0.0
2017-May-22 03:30N 35°19' E 139°39'0 0.0
2017-May-22 03:00N 35°19' E 139°39'0 0.0
2017-May-22 02:30N 35°19' E 139°39'0 0.0
2017-May-22 02:00N 35°19' E 139°39'0 0.0
2017-May-22 01:27N 35°19' E 139°39'0 0.0
2017-May-22 01:00N 35°19' E 139°39'0 0.0
2017-May-22 00:30N 35°19' E 139°39'0 0.0
2017-May-21 23:57N 35°19' E 139°39'0 0.0
2017-May-21 23:30N 35°19' E 139°39'0 0.3
2017-May-21 23:00N 35°19' E 139°39'2 3.1
2017-May-21 22:25N 35°20' E 139°41'0 0.0
2017-May-21 21:58N 35°20' E 139°41'0 0.0
2017-May-21 21:25N 35°20' E 139°41'0 0.0
2017-May-21 20:58N 35°20' E 139°41'0 0.0
2017-May-21 20:28N 35°20' E 139°41'0 0.0
2017-May-21 19:58N 35°20' E 139°41'0 0.0
2017-May-21 19:28N 35°20' E 139°41'0 0.0
2017-May-21 18:58N 35°20' E 139°41'0 0.0
2017-May-21 18:28N 35°20' E 139°41'0 0.0
2017-May-21 17:58N 35°20' E 139°41'0 0.0
2017-May-21 17:28N 35°20' E 139°41'0 0.0
2017-May-21 16:58N 35°20' E 139°41'0 0.0
2017-May-21 16:28N 35°20' E 139°41'0 0.0
2017-May-21 15:58N 35°20' E 139°41'0 0.0
2017-May-21 15:28N 35°20' E 139°41'0 0.0
2017-May-21 14:58N 35°20' E 139°41'0 0.0
2017-May-21 13:58N 35°20' E 139°41'0 0.0
2017-May-21 13:28N 35°20' E 139°41'0 0.1
2017-May-21 12:58N 35°20' E 139°41'0 0.7
2017-May-21 12:30N 35°20' E 139°42'611.5
2017-May-21 12:00N 35°16' E 139°47'815.7
2017-May-21 11:31N 35°08' E 139°46'1019.9
2017-May-21 11:00N 35°01' E 139°37'234 4.6
2017-May-19 07:44N 34°36' E 134°54'419.6
2017-May-19 07:30N 34°37' E 134°59'917.9
2017-May-19 07:00N 34°37' E 135°10'611.0
2017-May-19 06:30N 34°40' E 135°15'2 3.2
2017-May-19 06:00N 34°41' E 135°13'0 0.0
2017-May-19 05:26N 34°41' E 135°13'0 0.0
2017-May-19 04:32N 34°41' E 135°13'0 0.0
2017-May-19 04:26N 34°41' E 135°13'0 0.0
2017-May-19 03:52N 34°41' E 135°13'1 2.4
2017-May-19 03:30N 34°40' E 135°15'612.3
2017-May-19 03:00N 34°34' E 135°14'1019.5
2017-May-19 02:31N 34°27' E 135°07'1019.8
2017-May-19 02:00N 34°18' E 135°00'918.4
2017-May-19 01:31N 34°09' E 135°01'23816.2
2017-May-18 10:51N 35°06' E 139°41'617.2
2017-May-18 10:30N 35°11' E 139°45'611.6
2017-May-18 10:00N 35°17' E 139°45'5 9.9
2017-May-18 09:30N 35°19' E 139°39'0 0.7
2017-May-18 08:57N 35°19' E 139°39'0 0.0
2017-May-18 08:30N 35°19' E 139°39'0 0.0
2017-May-18 08:00N 35°19' E 139°39'0 0.0
2017-May-18 07:24N 35°19' E 139°39'0 0.0
2017-May-18 06:45N 35°19' E 139°39'0 0.0
2017-May-18 06:30N 35°19' E 139°39'0 0.0
2017-May-18 05:57N 35°19' E 139°39'0 0.0
2017-May-18 05:30N 35°19' E 139°39'0 0.0
2017-May-18 05:00N 35°19' E 139°39'0 0.0
2017-May-18 04:30N 35°19' E 139°39'0 0.0
2017-May-18 03:57N 35°19' E 139°39'0 0.6
2017-May-18 03:31N 35°19' E 139°39'511.0
2017-May-18 03:01N 35°17' E 139°46'612.1
2017-May-18 02:30N 35°11' E 139°46'916.9
2017-May-18 01:58N 35°03' E 139°42'  
2017-May-15 11:59N 34°56' E 139°26'  
Track history (hours):
 
Tides and Currents Weather Stations Pressure Air Temp Water Temp Dewpoint Dewpoint Depression Visibility Wind Speed Wind Dir Waves Ship Positions

Nichiryu Maru

Last reported at 2017-May-25 11:36 UTC. Time now 2017-May-25 16:18 UTC.
Position N 34°56' E 139°29'.

Length 158 m; draft 6.5 m.

Type: Cargo ship. MMSI: 43100939.

Date/timePositionNaut miles runAvg speedWind from/ knotsBaromVisibWave heightAir tempDewpointWater temp
2017-May-25 11:36N 34°56' E 139°29'219.7
2017-May-25 11:30N 34°58' E 139°31'1019.3
2017-May-25 11:00N 35°04' E 139°40'917.0
2017-May-25 10:30N 35°11' E 139°45'612.5
2017-May-25 10:00N 35°17' E 139°44'5 9.1
2017-May-25 09:30N 35°19' E 139°39'0 0.0
2017-May-25 08:59N 35°19' E 139°39'0 0.0
2017-May-25 08:29N 35°19' E 139°39'0 0.0
2017-May-25 07:59N 35°19' E 139°39'0 0.0
2017-May-25 07:29N 35°19' E 139°39'0 0.0
2017-May-25 06:59N 35°19' E 139°39'0 0.0
2017-May-25 06:29N 35°19' E 139°39'0 0.0
2017-May-25 05:59N 35°19' E 139°39'0 0.0
2017-May-25 05:29N 35°19' E 139°39'0 0.0
2017-May-25 04:59N 35°19' E 139°39'0 0.0
2017-May-25 04:29N 35°19' E 139°39'0 0.0
2017-May-25 03:56N 35°19' E 139°39'0 1.0
2017-May-25 03:30N 35°19' E 139°40'510.3
2017-May-25 03:00N 35°17' E 139°45'611.9
2017-May-25 02:30N 35°11' E 139°47'815.8
2017-May-25 02:00N 35°03' E 139°44'917.4
2017-May-25 01:30N 34°57' E 139°37'917.0
2017-May-25 00:57N 34°50' E 139°30'1117.0
2017-May-25 00:18N 34°47' E 139°17'  
2017-May-22 11:35N 34°55' E 139°29'217.3
2017-May-22 11:30N 34°57' E 139°30'917.3
2017-May-22 11:00N 35°02' E 139°38'816.8
2017-May-22 10:30N 35°09' E 139°44'713.3
2017-May-22 10:00N 35°15' E 139°46'612.0
2017-May-22 09:30N 35°19' E 139°40'1 2.0
2017-May-22 08:57N 35°19' E 139°39'0 0.0
2017-May-22 08:24N 35°19' E 139°39'0 0.0
2017-May-22 07:57N 35°19' E 139°39'0 0.0
2017-May-22 07:30N 35°19' E 139°39'0 0.0
2017-May-22 06:57N 35°19' E 139°39'0 0.0
2017-May-22 06:30N 35°19' E 139°39'0 0.0
2017-May-22 06:00N 35°19' E 139°39'0 0.0
2017-May-22 05:30N 35°19' E 139°39'0 0.0
2017-May-22 05:00N 35°19' E 139°39'0 0.0
2017-May-22 04:30N 35°19' E 139°39'0 0.0
2017-May-22 04:00N 35°19' E 139°39'0 0.0
2017-May-22 03:30N 35°19' E 139°39'0 0.0
2017-May-22 03:00N 35°19' E 139°39'0 0.0
2017-May-22 02:30N 35°19' E 139°39'0 0.0
2017-May-22 02:00N 35°19' E 139°39'0 0.0
2017-May-22 01:27N 35°19' E 139°39'0 0.0
2017-May-22 01:00N 35°19' E 139°39'0 0.0
2017-May-22 00:30N 35°19' E 139°39'0 0.0
2017-May-21 23:57N 35°19' E 139°39'0 0.0
2017-May-21 23:30N 35°19' E 139°39'0 0.3
2017-May-21 23:00N 35°19' E 139°39'2 3.1
2017-May-21 22:25N 35°20' E 139°41'0 0.0
2017-May-21 21:58N 35°20' E 139°41'0 0.0
2017-May-21 21:25N 35°20' E 139°41'0 0.0
2017-May-21 20:58N 35°20' E 139°41'0 0.0
2017-May-21 20:28N 35°20' E 139°41'0 0.0
2017-May-21 19:58N 35°20' E 139°41'0 0.0
2017-May-21 19:28N 35°20' E 139°41'0 0.0
2017-May-21 18:58N 35°20' E 139°41'0 0.0
2017-May-21 18:28N 35°20' E 139°41'0 0.0
2017-May-21 17:58N 35°20' E 139°41'0 0.0
2017-May-21 17:28N 35°20' E 139°41'0 0.0
2017-May-21 16:58N 35°20' E 139°41'0 0.0
2017-May-21 16:28N 35°20' E 139°41'0 0.0
2017-May-21 15:58N 35°20' E 139°41'0 0.0
2017-May-21 15:28N 35°20' E 139°41'0 0.0
2017-May-21 14:58N 35°20' E 139°41'0 0.0
2017-May-21 13:58N 35°20' E 139°41'0 0.0
2017-May-21 13:28N 35°20' E 139°41'0 0.1
2017-May-21 12:58N 35°20' E 139°41'0 0.7
2017-May-21 12:30N 35°20' E 139°42'611.5
2017-May-21 12:00N 35°16' E 139°47'815.7
2017-May-21 11:31N 35°08' E 139°46'1019.9
2017-May-21 11:00N 35°01' E 139°37'234 4.6
2017-May-19 07:44N 34°36' E 134°54'419.6
2017-May-19 07:30N 34°37' E 134°59'917.9
2017-May-19 07:00N 34°37' E 135°10'611.0
2017-May-19 06:30N 34°40' E 135°15'2 3.2
2017-May-19 06:00N 34°41' E 135°13'0 0.0
2017-May-19 05:26N 34°41' E 135°13'0 0.0
2017-May-19 04:32N 34°41' E 135°13'0 0.0
2017-May-19 04:26N 34°41' E 135°13'0 0.0
2017-May-19 03:52N 34°41' E 135°13'1 2.4
2017-May-19 03:30N 34°40' E 135°15'612.3
2017-May-19 03:00N 34°34' E 135°14'1019.5
2017-May-19 02:31N 34°27' E 135°07'1019.8
2017-May-19 02:00N 34°18' E 135°00'918.4
2017-May-19 01:31N 34°09' E 135°01'23816.2
2017-May-18 10:51N 35°06' E 139°41'617.2
2017-May-18 10:30N 35°11' E 139°45'611.6
2017-May-18 10:00N 35°17' E 139°45'5 9.9
2017-May-18 09:30N 35°19' E 139°39'0 0.7
2017-May-18 08:57N 35°19' E 139°39'0 0.0
2017-May-18 08:30N 35°19' E 139°39'0 0.0
2017-May-18 08:00N 35°19' E 139°39'0 0.0
2017-May-18 07:24N 35°19' E 139°39'0 0.0
2017-May-18 06:45N 35°19' E 139°39'0 0.0
2017-May-18 06:30N 35°19' E 139°39'0 0.0
2017-May-18 05:57N 35°19' E 139°39'0 0.0
2017-May-18 05:30N 35°19' E 139°39'0 0.0
2017-May-18 05:00N 35°19' E 139°39'0 0.0
2017-May-18 04:30N 35°19' E 139°39'0 0.0
2017-May-18 03:57N 35°19' E 139°39'0 0.6
2017-May-18 03:31N 35°19' E 139°39'511.0
2017-May-18 03:01N 35°17' E 139°46'612.1
2017-May-18 02:30N 35°11' E 139°46'916.9
2017-May-18 01:58N 35°03' E 139°42'  
2017-May-15 11:59N 34°56' E 139°26'  

Dump ship's entire track history